TimeCDT,TemperatureF,Dew PointF,Humidity,Sea Level PressureIn,VisibilityMPH,Wind Direction,Wind SpeedMPH,Gust SpeedMPH,PrecipitationIn,Events,Conditions,WindDirDegrees,DateUTC
12:15 AM,75.6,73.0,92,29.97,10.0,East,4.6,-,N/A,,Scattered Clouds,100,2013-09-10 05:15:00
12:35 AM,75.4,73.4,94,29.97,10.0,Calm,Calm,-,N/A,,Clear,0,2013-09-10 05:35:00
12:55 AM,74.8,73.4,95,29.96,10.0,ENE,3.5,-,N/A,,Clear,60,2013-09-10 05:55:00
1:15 AM,74.1,72.9,96,29.97,10.0,NE,4.6,-,N/A,,Clear,50,2013-09-10 06:15:00
1:35 AM,74.1,73.0,96,29.97,7.0,NE,3.5,-,N/A,,Clear,50,2013-09-10 06:35:00
1:55 AM,73.9,72.9,96,29.97,7.0,ENE,4.6,-,N/A,,Clear,60,2013-09-10 06:55:00
2:15 AM,73.9,72.9,96,29.97,7.0,NE,4.6,-,N/A,,Clear,50,2013-09-10 07:15:00
2:35 AM,74.3,73.0,96,29.97,10.0,NE,4.6,-,N/A,,Clear,50,2013-09-10 07:35:00
2:55 AM,74.3,73.4,97,29.97,10.0,NE,3.5,-,N/A,,Clear,50,2013-09-10 07:55:00
3:15 AM,74.3,73.4,97,29.97,7.0,NE,4.6,-,N/A,,Clear,50,2013-09-10 08:15:00
3:35 AM,74.3,73.4,97,29.96,7.0,NE,3.5,-,N/A,,Clear,50,2013-09-10 08:35:00
3:55 AM,74.5,73.4,96,29.97,10.0,NE,3.5,-,N/A,,Clear,50,2013-09-10 08:55:00
4:15 AM,74.7,73.6,96,29.97,10.0,NE,3.5,-,N/A,,Clear,50,2013-09-10 09:15:00
4:35 AM,74.7,73.4,96,29.97,7.0,NNE,3.5,-,N/A,,Clear,30,2013-09-10 09:35:00
4:55 AM,74.7,73.6,96,29.98,7.0,NE,3.5,-,N/A,,Clear,40,2013-09-10 09:55:00
5:15 AM,74.8,73.8,96,29.98,10.0,ENE,6.9,-,N/A,,Clear,70,2013-09-10 10:15:00
5:35 AM,75.2,73.9,96,29.98,10.0,ENE,5.8,-,N/A,,Clear,60,2013-09-10 10:35:00
5:55 AM,75.2,73.8,95,29.98,10.0,ENE,3.5,-,N/A,,Clear,60,2013-09-10 10:55:00
6:15 AM,75.4,74.1,96,29.98,7.0,Calm,Calm,-,N/A,,Clear,0,2013-09-10 11:15:00
6:35 AM,75.4,74.3,96,29.99,7.0,ENE,4.6,-,N/A,,Clear,70,2013-09-10 11:35:00
6:55 AM,75.7,74.5,96,29.99,10.0,East,5.8,-,N/A,,Clear,80,2013-09-10 11:55:00
7:15 AM,75.7,74.3,95,30.00,10.0,East,4.6,-,N/A,,Clear,80,2013-09-10 12:15:00
7:35 AM,75.7,74.3,95,30.00,7.0,ENE,4.6,-,N/A,,Clear,60,2013-09-10 12:35:00
7:55 AM,75.9,74.5,95,30.01,7.0,ENE,3.5,-,N/A,,Clear,60,2013-09-10 12:55:00
8:15 AM,76.8,75.2,95,30.01,7.0,ENE,5.8,-,N/A,Rain,Light Rain,60,2013-09-10 13:15:00
8:35 AM,78.6,76.1,92,30.01,10.0,ENE,8.1,-,N/A,,Scattered Clouds,60,2013-09-10 13:35:00
8:55 AM,80.8,76.8,88,30.01,10.0,East,9.2,-,N/A,,Clear,80,2013-09-10 13:55:00
9:15 AM,82.8,77.7,85,30.02,10.0,East,8.1,-,N/A,,Clear,90,2013-09-10 14:15:00
9:35 AM,83.5,77.9,83,30.03,10.0,East,6.9,-,N/A,,Clear,80,2013-09-10 14:35:00
9:55 AM,84.6,78.1,81,30.03,10.0,East,8.1,-,N/A,,Clear,90,2013-09-10 14:55:00
10:15 AM,85.8,78.1,78,30.03,10.0,East,9.2,-,N/A,,Clear,80,2013-09-10 15:15:00
10:35 AM,85.3,77.5,78,30.03,10.0,East,9.2,-,N/A,,Clear,90,2013-09-10 15:35:00
10:55 AM,85.8,77.7,77,30.03,10.0,East,9.2,-,N/A,,Clear,90,2013-09-10 15:55:00
11:15 AM,86.0,77.5,76,30.04,10.0,East,10.4,-,N/A,,Clear,100,2013-09-10 16:15:00
11:35 AM,86.5,77.7,75,30.05,10.0,ESE,12.7,17.3,N/A,,Mostly Cloudy,110,2013-09-10 16:35:00
11:55 AM,87.4,77.2,71,30.05,10.0,East,10.4,17.3,N/A,,Mostly Cloudy,100,2013-09-10 16:55:00
12:15 PM,88.7,76.3,67,30.05,10.0,ESE,13.8,17.3,N/A,,Mostly Cloudy,120,2013-09-10 17:15:00
12:35 PM,88.5,75.4,65,30.05,10.0,East,11.5,18.4,N/A,,Scattered Clouds,100,2013-09-10 17:35:00
12:55 PM,87.8,74.8,65,30.04,10.0,East,10.4,-,N/A,,Scattered Clouds,100,2013-09-10 17:55:00
1:15 PM,88.7,75.0,64,30.03,10.0,ESE,11.5,17.3,N/A,,Scattered Clouds,110,2013-09-10 18:15:00
1:35 PM,89.2,74.1,61,30.03,10.0,ESE,10.4,-,N/A,,Clear,110,2013-09-10 18:35:00
1:55 PM,90.5,74.7,60,30.02,10.0,East,10.4,-,N/A,,Clear,100,2013-09-10 18:55:00
2:15 PM,89.8,74.1,60,30.01,10.0,East,10.4,16.1,N/A,,Clear,100,2013-09-10 19:15:00
2:35 PM,89.1,73.2,59,30.01,10.0,East,12.7,17.3,N/A,,Clear,100,2013-09-10 19:35:00
2:55 PM,88.9,72.9,59,30.01,10.0,East,12.7,16.1,N/A,,Clear,100,2013-09-10 19:55:00
3:15 PM,89.1,72.1,57,30.00,10.0,ESE,13.8,18.4,N/A,,Scattered Clouds,120,2013-09-10 20:15:00
3:35 PM,88.9,74.7,63,29.99,10.0,East,13.8,-,N/A,,Scattered Clouds,100,2013-09-10 20:35:00
3:55 PM,89.6,75.7,64,29.98,10.0,East,12.7,17.3,N/A,,Scattered Clouds,90,2013-09-10 20:55:00
4:15 PM,89.2,75.6,64,29.98,10.0,East,12.7,18.4,N/A,,Scattered Clouds,100,2013-09-10 21:15:00
4:35 PM,88.9,75.4,64,29.98,10.0,East,12.7,18.4,N/A,,Scattered Clouds,100,2013-09-10 21:35:00
4:55 PM,88.3,76.3,67,29.98,10.0,East,12.7,17.3,N/A,,Scattered Clouds,80,2013-09-10 21:55:00
5:15 PM,86.9,76.6,71,29.99,10.0,East,10.4,-,N/A,,Scattered Clouds,90,2013-09-10 22:15:00
5:35 PM,86.4,76.8,73,29.99,10.0,ESE,11.5,-,N/A,,Mostly Cloudy,110,2013-09-10 22:35:00
5:55 PM,85.3,76.6,75,29.99,7.0,East,10.4,20.7,N/A,,Mostly Cloudy,100,2013-09-10 22:55:00
6:15 PM,82.9,76.3,80,29.99,10.0,East,6.9,-,N/A,,Mostly Cloudy,90,2013-09-10 23:15:00
6:35 PM,82.0,76.5,83,29.99,10.0,East,6.9,-,N/A,,Scattered Clouds,90,2013-09-10 23:35:00
6:55 PM,82.2,76.5,83,30.00,10.0,ESE,10.4,-,N/A,,Clear,120,2013-09-10 23:55:00
7:15 PM,82.0,74.7,78,30.00,10.0,ESE,5.8,-,N/A,,Clear,110,2013-09-11 00:15:00
7:35 PM,81.7,75.4,81,30.00,10.0,East,5.8,-,N/A,,Scattered Clouds,100,2013-09-11 00:35:00
7:55 PM,81.1,76.1,85,30.00,10.0,East,5.8,-,N/A,,Scattered Clouds,80,2013-09-11 00:55:00
8:15 PM,80.4,76.3,87,30.01,10.0,East,3.5,-,N/A,,Clear,90,2013-09-11 01:15:00
8:35 PM,79.9,76.5,89,30.01,10.0,East,4.6,-,N/A,,Clear,100,2013-09-11 01:35:00
8:55 PM,79.3,76.5,91,30.01,10.0,East,4.6,-,N/A,,Clear,100,2013-09-11 01:55:00
9:15 PM,79.0,76.3,91,30.01,10.0,ENE,4.6,-,N/A,,Clear,60,2013-09-11 02:15:00
9:35 PM,78.6,76.1,92,30.02,10.0,ENE,3.5,-,N/A,,Clear,70,2013-09-11 02:35:00
9:55 PM,78.6,76.1,92,30.02,10.0,East,4.6,-,N/A,,Clear,80,2013-09-11 02:55:00
10:15 PM,77.7,75.6,93,30.03,10.0,ENE,4.6,-,N/A,,Clear,70,2013-09-11 03:15:00
10:35 PM,77.5,75.4,93,30.03,10.0,ENE,4.6,-,N/A,,Clear,70,2013-09-11 03:35:00
10:55 PM,77.4,75.4,94,30.04,10.0,ENE,3.5,-,N/A,,Clear,60,2013-09-11 03:55:00
11:15 PM,77.2,75.2,94,30.03,10.0,NE,4.6,-,N/A,,Clear,50,2013-09-11 04:15:00
11:35 PM,77.2,75.2,94,30.03,10.0,NE,3.5,-,N/A,,Scattered Clouds,50,2013-09-11 04:35:00
11:55 PM,76.8,74.7,93,30.03,7.0,NE,3.5,-,N/A,,Clear,50,2013-09-11 04:55:00